createdAt,value
2022-11-02T00:02:23.989Z,98049.28
2022-11-02T00:04:50.658Z,98048.47
2022-11-02T00:07:17.139Z,98040.81
2022-11-02T00:09:43.681Z,98036.38
2022-11-02T00:12:10.197Z,98047.59
2022-11-02T00:14:36.713Z,98046.72
2022-11-02T00:17:03.272Z,98047.59
2022-11-02T00:19:29.914Z,98041.44
2022-11-02T00:21:58.778Z,98053.59
2022-11-02T00:24:25.277Z,98042.44
2022-11-02T00:26:51.810Z,98047.66
2022-11-02T00:29:20.849Z,98029.25
2022-11-02T00:31:47.355Z,98044.16
2022-11-02T00:34:13.857Z,98045.00
2022-11-02T00:36:40.330Z,98058.72
2022-11-02T00:39:06.823Z,98061.28
2022-11-02T00:41:33.329Z,98062.09
2022-11-02T00:43:59.884Z,98062.97
2022-11-02T00:46:26.381Z,98064.66
2022-11-02T00:48:52.852Z,98062.97
2022-11-02T00:51:19.326Z,98058.69
2022-11-02T00:53:45.840Z,98067.22
2022-11-02T00:56:12.406Z,98067.22
2022-11-02T00:58:38.926Z,98063.81
2022-11-02T01:01:06.528Z,98067.22
2022-11-02T01:03:33.098Z,98063.81
2022-11-02T01:05:59.579Z,98068.97
2022-11-02T01:08:26.086Z,98070.66
2022-11-02T01:10:52.583Z,98074.91
2022-11-02T01:13:19.072Z,98064.50
2022-11-02T01:15:45.601Z,98078.34
2022-11-02T01:18:12.068Z,98080.91
2022-11-02T01:20:38.622Z,98068.88
2022-11-02T01:23:05.130Z,98068.88
2022-11-02T01:25:31.605Z,98071.53
2022-11-02T01:27:58.148Z,98071.47
2022-11-02T01:30:24.630Z,98077.50
2022-11-02T01:32:51.105Z,98070.66
2022-11-02T01:35:17.601Z,98072.38
2022-11-02T01:37:44.118Z,98074.91
2022-11-02T01:40:10.943Z,98074.09
2022-11-02T01:42:37.498Z,98086.91
2022-11-02T01:45:04.243Z,98071.53
2022-11-02T01:47:37.858Z,98052.41
2022-11-02T01:50:12.642Z,98052.34
2022-11-02T01:52:39.334Z,98064.66
2022-11-02T01:55:16.634Z,98062.97
2022-11-02T01:57:46.098Z,98073.22
2022-11-02T02:00:14.217Z,98072.31
2022-11-02T02:02:52.259Z,98066.19
2022-11-02T02:05:18.993Z,98070.66
2022-11-02T02:07:45.490Z,98064.66
2022-11-02T02:10:11.972Z,98067.09
2022-11-02T02:12:39.267Z,98076.59
2022-11-02T02:15:06.262Z,98071.47
2022-11-02T02:17:33.103Z,98070.66
2022-11-02T02:20:03.615Z,98076.66
2022-11-02T02:22:45.670Z,98079.22
2022-11-02T02:25:30.446Z,98082.63
2022-11-02T02:27:56.816Z,98080.00
2022-11-02T02:30:23.585Z,98078.34
2022-11-02T02:32:57.701Z,98090.25
2022-11-02T02:35:46.898Z,98075.34
2022-11-02T02:38:21.163Z,98103.94
2022-11-02T02:40:58.584Z,98100.50
2022-11-02T02:43:29.605Z,98098.78
2022-11-02T02:46:29.613Z,98093.53
2022-11-02T02:48:56.889Z,98099.66
2022-11-02T02:51:30.003Z,98102.22
2022-11-02T02:54:28.863Z,98103.88
2022-11-02T02:56:56.776Z,98098.78
2022-11-02T02:59:31.974Z,98082.19
2022-11-02T03:01:58.770Z,98099.59
2022-11-02T03:04:25.495Z,98097.03
2022-11-02T03:06:53.541Z,98103.00
2022-11-02T03:09:41.690Z,98098.78
2022-11-02T03:12:24.882Z,98103.88
2022-11-02T03:15:00.471Z,98097.09
2022-11-02T03:17:39.128Z,98096.22
2022-11-02T03:20:14.615Z,98105.63
2022-11-02T03:22:56.231Z,98102.22
2022-11-02T03:25:41.088Z,98105.63
2022-11-02T03:28:18.475Z,98109.00
2022-11-02T03:30:47.133Z,98111.56
2022-11-02T03:33:20.095Z,98118.38
2022-11-02T03:35:56.262Z,98107.97
2022-11-02T03:38:25.387Z,98120.09
2022-11-02T03:40:52.752Z,98121.81
2022-11-02T03:43:19.274Z,98118.38
2022-11-02T03:45:54.204Z,98123.50
2022-11-02T03:48:20.956Z,98116.53
2022-11-02T03:50:49.821Z,98124.38
2022-11-02T03:53:24.273Z,98117.53
2022-11-02T03:55:53.213Z,98111.41
2022-11-02T03:58:20.006Z,98110.63
2022-11-02T04:00:54.659Z,98124.31
2022-11-02T04:03:21.886Z,98106.84
2022-11-02T04:05:48.358Z,98126.94
2022-11-02T04:08:22.559Z,98113.16
2022-11-02T04:11:08.126Z,98125.25
2022-11-02T04:13:53.585Z,98120.94
2022-11-02T04:16:25.020Z,98100.50
2022-11-02T04:19:12.943Z,98109.00
2022-11-02T04:21:39.449Z,98095.16
2022-11-02T04:24:24.565Z,98095.22
2022-11-02T04:26:51.113Z,98097.88
2022-11-02T04:29:17.593Z,98106.41
2022-11-02T04:31:44.145Z,98101.22
2022-11-02T04:34:10.636Z,98108.09
2022-11-02T04:36:37.132Z,98120.88
2022-11-02T04:39:03.627Z,98119.22
2022-11-02T04:41:41.712Z,98132.91
2022-11-02T04:44:13.159Z,98134.56
2022-11-02T04:46:39.989Z,98138.03
2022-11-02T04:49:06.611Z,98134.56
2022-11-02T04:51:33.187Z,98124.22
2022-11-02T04:53:59.702Z,98137.19
2022-11-02T04:56:26.844Z,98143.03
2022-11-02T04:58:54.705Z,98136.91
2022-11-02T05:01:21.915Z,98148.31
2022-11-02T05:03:49.074Z,98138.06
2022-11-02T05:06:19.028Z,98138.03
2022-11-02T05:08:45.534Z,98144.88
2022-11-02T05:11:12.165Z,98137.25
2022-11-02T05:13:39.218Z,98141.47
2022-11-02T05:16:06.307Z,98098.84
2022-11-02T05:18:32.990Z,98131.97
2022-11-02T05:21:00.951Z,98127.78
2022-11-02T05:23:27.834Z,98135.50
2022-11-02T05:25:55.548Z,98126.84
2022-11-02T05:28:22.093Z,98124.38
2022-11-02T05:30:48.623Z,98129.41
2022-11-02T05:33:15.164Z,98132.84
2022-11-02T05:35:41.841Z,98140.56
2022-11-02T05:38:08.430Z,98142.31
2022-11-02T05:40:37.347Z,98140.53
2022-11-02T05:43:04.372Z,98138.03
2022-11-02T05:45:31.158Z,98144.88
2022-11-02T05:48:00.117Z,98140.47
2022-11-02T05:50:26.748Z,98143.03
2022-11-02T05:52:53.624Z,98134.25
2022-11-02T05:55:20.350Z,98150.00
2022-11-02T05:57:53.451Z,98150.81
2022-11-02T06:00:20.577Z,98160.97
2022-11-02T06:02:47.968Z,98166.25
2022-11-02T06:05:14.923Z,98173.03
2022-11-02T06:07:41.521Z,98175.66
2022-11-02T06:10:08.304Z,98174.72
2022-11-02T06:12:34.788Z,98163.41
2022-11-02T06:15:01.303Z,98178.16
2022-11-02T06:17:27.781Z,98180.72
2022-11-02T06:19:54.293Z,98177.22
2022-11-02T06:22:20.859Z,98172.00
2022-11-02T06:24:47.338Z,98186.56
2022-11-02T06:27:13.838Z,98185.69
2022-11-02T06:29:40.370Z,98192.47
2022-11-02T06:32:06.881Z,98200.09
2022-11-02T06:34:33.345Z,98205.22
2022-11-02T06:36:59.869Z,98205.19
2022-11-02T06:39:26.483Z,98211.19
2022-11-02T06:41:53.053Z,98206.06
2022-11-02T06:44:19.573Z,98207.69
2022-11-02T06:46:46.082Z,98206.66
2022-11-02T06:49:12.554Z,98225.50
2022-11-02T06:51:39.035Z,98240.97
2022-11-02T06:54:08.660Z,98228.06
2022-11-02T06:56:35.459Z,98239.22
2022-11-02T06:59:01.949Z,98231.50
2022-11-02T07:01:28.630Z,98250.25
2022-11-02T07:03:55.218Z,98254.59
2022-11-02T07:06:21.722Z,98257.16
2022-11-02T07:08:48.210Z,98253.78
2022-11-02T07:11:16.141Z,98246.63
2022-11-02T07:13:42.990Z,98261.41
2022-11-02T07:16:09.514Z,98271.69
2022-11-02T07:18:36.087Z,98266.56
2022-11-02T07:21:02.700Z,98265.72
2022-11-02T07:23:29.327Z,98272.59
2022-11-02T07:25:55.819Z,98265.72
2022-11-02T07:28:22.358Z,98268.28
2022-11-02T07:30:48.901Z,98266.56
2022-11-02T07:33:15.381Z,98271.69
2022-11-02T07:35:42.417Z,98269.13
2022-11-02T07:38:09.459Z,98272.59
2022-11-02T07:40:36.285Z,98269.97
2022-11-02T07:43:03.618Z,98272.59
2022-11-02T07:45:30.430Z,98277.75
2022-11-02T07:47:56.922Z,98276.94
2022-11-02T07:50:24.317Z,98261.34
2022-11-02T07:52:52.292Z,98276.16
2022-11-02T07:55:20.400Z,98273.59
2022-11-02T07:57:54.568Z,98274.44
2022-11-02T08:00:21.172Z,98271.88
2022-11-02T08:02:47.735Z,98269.31
2022-11-02T08:05:14.321Z,98277.06
2022-11-02T08:07:40.874Z,98278.75
2022-11-02T08:10:07.694Z,98274.31
2022-11-02T08:12:34.181Z,98265.06
2022-11-02T08:15:06.332Z,98271.06
2022-11-02T08:17:33.998Z,98281.31
2022-11-02T08:20:00.502Z,98287.25
2022-11-02T08:22:26.988Z,98284.69
2022-11-02T08:24:53.539Z,98288.06
2022-11-02T08:27:20.022Z,98284.63
2022-11-02T08:29:46.535Z,98285.56
2022-11-02T08:32:13.026Z,98294.91
2022-11-02T08:34:39.527Z,98288.13
2022-11-02T08:37:07.819Z,98285.28
2022-11-02T08:39:34.324Z,98297.53
2022-11-02T08:42:00.809Z,98293.25
2022-11-02T08:44:27.334Z,98294.13
2022-11-02T08:46:55.292Z,98291.50
2022-11-02T08:49:21.978Z,98298.38
2022-11-02T08:51:48.528Z,98300.09
2022-11-02T08:54:15.093Z,98290.75
2022-11-02T08:56:41.634Z,98165.09
2022-11-02T08:59:08.796Z,98288.13
2022-11-02T09:01:35.381Z,98289.00
2022-11-02T09:04:01.923Z,98287.28
2022-11-02T09:06:28.447Z,98286.44
2022-11-02T09:08:57.916Z,98286.44
2022-11-02T09:11:25.604Z,98283.88
2022-11-02T09:13:56.698Z,98285.56
2022-11-02T09:16:23.674Z,98282.19
2022-11-02T09:18:50.215Z,98274.09
2022-11-02T09:21:16.745Z,98290.69
2022-11-02T09:23:43.680Z,98292.38
2022-11-02T09:26:10.156Z,98282.88
2022-11-02T09:28:36.663Z,98290.69
2022-11-02T09:31:07.268Z,98294.91
2022-11-02T09:33:37.167Z,98295.81
2022-11-02T09:36:04.392Z,98301.00
2022-11-02T09:38:31.153Z,98294.00
2022-11-02T09:41:13.973Z,98294.97
2022-11-02T09:44:01.366Z,98300.09
2022-11-02T09:46:46.870Z,98295.88
2022-11-02T09:49:21.148Z,98294.06
2022-11-02T09:51:57.969Z,98295.88
2022-11-02T09:54:49.007Z,98300.09
2022-11-02T09:57:19.967Z,98305.16
2022-11-02T09:59:46.501Z,98301.81
2022-11-02T10:02:41.817Z,98304.31
2022-11-02T10:05:39.601Z,98305.09
2022-11-02T10:08:26.239Z,98304.19
2022-11-02T10:10:58.491Z,98305.88
2022-11-02T10:13:34.090Z,98305.81
2022-11-02T10:16:03.033Z,98300.63
2022-11-02T10:18:30.078Z,98306.63
2022-11-02T10:21:07.059Z,98304.03
2022-11-02T10:23:54.076Z,98300.56
2022-11-02T10:26:34.107Z,98311.53
2022-11-02T10:29:03.676Z,98303.97
2022-11-02T10:31:34.014Z,98305.63
2022-11-02T10:34:15.908Z,98303.00
2022-11-02T10:36:56.485Z,98304.69
2022-11-02T10:39:29.688Z,98300.47
2022-11-02T10:42:14.186Z,98303.00
2022-11-02T10:45:22.393Z,98196.34
2022-11-02T10:47:58.299Z,98299.41
2022-11-02T10:50:33.873Z,98312.44
2022-11-02T10:53:20.294Z,98307.31
2022-11-02T10:56:01.593Z,98309.03
2022-11-02T10:58:28.741Z,98305.63
2022-11-02T11:01:13.268Z,98300.50
2022-11-02T11:03:58.645Z,98297.97
2022-11-02T11:06:27.949Z,98291.66
2022-11-02T11:08:59.050Z,98302.25
2022-11-02T11:11:27.250Z,98305.69
2022-11-02T11:19:51.343Z,98289.34
2022-11-02T11:22:34.247Z,98292.91
2022-11-02T11:25:12.956Z,98293.72
2022-11-02T11:27:46.771Z,98292.06
2022-11-02T11:33:24.298Z,98275.78
2022-11-02T11:35:50.905Z,98286.03
2022-11-02T11:38:19.523Z,98279.22
2022-11-02T11:40:54.103Z,98277.53
2022-11-02T11:43:28.225Z,98266.28
2022-11-02T11:46:05.857Z,98278.47
2022-11-02T11:48:36.217Z,98276.75
2022-11-02T11:51:03.506Z,98262.81
2022-11-02T11:53:30.207Z,98272.53
2022-11-02T11:55:58.363Z,98263.91
2022-11-02T11:58:34.461Z,98259.72
2022-11-02T12:01:11.220Z,98258.03
2022-11-02T12:03:55.378Z,98270.84
2022-11-02T12:07:09.590Z,98269.13
2022-11-02T12:10:12.411Z,98268.22
2022-11-02T12:12:57.474Z,98258.84
2022-11-02T12:15:27.012Z,98258.91
2022-11-02T12:18:21.396Z,98250.97
2022-11-02T12:20:53.389Z,98258.91
2022-11-02T12:23:35.024Z,98262.34
2022-11-02T12:26:23.307Z,98262.34
2022-11-02T12:29:16.118Z,98260.66
2022-11-02T12:31:47.524Z,98261.50
2022-11-02T12:34:23.115Z,98255.59
2022-11-02T12:37:32.752Z,98238.06
2022-11-02T12:40:23.997Z,98260.72
2022-11-02T12:43:00.036Z,98248.59
2022-11-02T12:45:48.026Z,98258.16
2022-11-02T12:48:24.682Z,98255.47
2022-11-02T12:51:05.065Z,98248.72
2022-11-02T12:53:43.082Z,98241.56
2022-11-02T12:56:19.738Z,98235.50
2022-11-02T12:58:46.223Z,98239.88
2022-11-02T13:01:19.193Z,98252.97
2022-11-02T13:04:26.004Z,98256.41
2022-11-02T13:07:17.510Z,98231.25
2022-11-02T13:09:51.320Z,98244.47
2022-11-02T13:12:20.150Z,98243.59
2022-11-02T13:14:48.149Z,98228.88
2022-11-02T13:17:33.379Z,98241.91
2022-11-02T13:20:35.248Z,98241.91
2022-11-02T13:23:08.566Z,98243.59
2022-11-02T13:25:37.213Z,98243.59
2022-11-02T13:28:09.386Z,98237.69
2022-11-02T13:30:36.127Z,98212.47
2022-11-02T13:33:17.872Z,98219.47
2022-11-02T13:35:46.111Z,98232.56
2022-11-02T13:38:12.532Z,98232.56
2022-11-02T13:40:47.879Z,98228.28
2022-11-02T13:43:17.243Z,98235.09
2022-11-02T13:46:03.199Z,98216.00
2022-11-02T13:48:54.230Z,98231.66
2022-11-02T13:51:35.290Z,98225.66
2022-11-02T13:54:12.534Z,98216.19
2022-11-02T13:56:39.089Z,98222.25
2022-11-02T13:59:19.319Z,98216.25
2022-11-02T14:01:45.900Z,98217.97
2022-11-02T14:04:13.594Z,98215.34
2022-11-02T14:06:58.069Z,98219.69
2022-11-02T14:09:39.745Z,98214.56
2022-11-02T14:12:21.559Z,98212.00
2022-11-02T14:15:09.999Z,98209.44
2022-11-02T14:18:09.274Z,98214.56
2022-11-02T14:20:43.870Z,98198.16
2022-11-02T14:23:17.957Z,98212.84
2022-11-02T14:25:54.539Z,98206.88
2022-11-02T14:28:21.105Z,98212.84
2022-11-02T14:31:06.072Z,98203.38
2022-11-02T14:33:50.819Z,98209.44
2022-11-02T14:36:17.283Z,98212.00
2022-11-02T14:39:07.126Z,98219.69
2022-11-02T14:41:45.631Z,98205.19
2022-11-02T14:44:33.497Z,98206.00
2022-11-02T14:47:13.406Z,98209.44
2022-11-02T14:49:46.034Z,98206.00
2022-11-02T14:52:12.401Z,98210.28
2022-11-02T14:54:47.961Z,98213.69
2022-11-02T14:57:27.282Z,98217.63
2022-11-02T14:59:55.349Z,98196.47
2022-11-02T15:02:38.636Z,98214.56
2022-11-02T15:05:08.854Z,98208.56
2022-11-02T15:07:37.179Z,98193.19
2022-11-02T15:10:32.952Z,98199.19
2022-11-02T15:13:20.315Z,98200.88
2022-11-02T15:15:55.792Z,98215.41
2022-11-02T15:18:33.288Z,98204.31
2022-11-02T15:21:12.188Z,98221.38
2022-11-02T15:23:48.152Z,98210.13
2022-11-02T15:26:17.983Z,98206.72
2022-11-02T15:28:44.602Z,98206.81
2022-11-02T15:31:17.918Z,98202.56
2022-11-02T15:33:48.731Z,98212.84
2022-11-02T15:36:35.474Z,98206.06
2022-11-02T15:39:08.806Z,98186.91
2022-11-02T15:42:03.006Z,98205.06
2022-11-02T15:45:19.965Z,98203.44
2022-11-02T15:48:10.225Z,98206.81
2022-11-02T15:50:50.054Z,98209.34
2022-11-02T15:53:24.881Z,98209.38
2022-11-02T15:56:09.870Z,98205.13
2022-11-02T15:58:51.512Z,98197.44
2022-11-02T16:01:23.927Z,98196.63
2022-11-02T16:03:58.653Z,98189.53
2022-11-02T16:06:32.556Z,98194.88
2022-11-02T16:09:00.564Z,98198.31
2022-11-02T16:11:27.150Z,98184.69
2022-11-02T16:14:08.411Z,98180.41
2022-11-02T16:16:36.165Z,98185.50
2022-11-02T16:19:02.801Z,98188.97
2022-11-02T16:21:29.294Z,98191.47
2022-11-02T16:23:56.065Z,98192.31
2022-11-02T16:26:24.435Z,98182.66
2022-11-02T16:28:52.232Z,98186.19
2022-11-02T16:31:20.443Z,98185.19
2022-11-02T16:33:54.214Z,98200.06
2022-11-02T16:36:24.684Z,98208.56
2022-11-02T16:38:58.930Z,98199.19
2022-11-02T16:41:29.690Z,98205.13
2022-11-02T16:43:56.658Z,98200.88
2022-11-02T16:46:42.842Z,98204.31
2022-11-02T16:49:19.526Z,98211.13
2022-11-02T16:52:18.046Z,98174.47
2022-11-02T16:54:44.844Z,98206.00
2022-11-02T16:57:12.093Z,98200.88
2022-11-02T16:59:53.655Z,98196.53
2022-11-02T17:02:44.172Z,98183.38
2022-11-02T17:05:24.251Z,98198.09
2022-11-02T17:07:59.648Z,98208.56
2022-11-02T17:10:27.916Z,98204.31
2022-11-02T17:12:54.564Z,98199.94
2022-11-02T17:15:22.588Z,98200.06
2022-11-02T17:17:49.325Z,98202.56
2022-11-02T17:20:21.026Z,98204.31
2022-11-02T17:22:53.441Z,98207.72
2022-11-02T17:25:21.047Z,98204.31
2022-11-02T17:27:47.671Z,98201.75
2022-11-02T17:30:32.752Z,98208.63
2022-11-02T17:33:00.319Z,98194.59
2022-11-02T17:35:27.628Z,98206.00
2022-11-02T17:37:54.387Z,98199.19
2022-11-02T17:40:21.977Z,98204.31
2022-11-02T17:43:00.972Z,98195.75
2022-11-02T17:45:31.738Z,98205.13
2022-11-02T17:47:58.986Z,98198.22
2022-11-02T17:50:26.399Z,98193.19
2022-11-02T17:52:53.262Z,98176.63
2022-11-02T17:55:21.566Z,98193.19
2022-11-02T17:57:48.422Z,98188.97
2022-11-02T18:00:17.559Z,98191.47
2022-11-02T18:02:54.161Z,98190.47
2022-11-02T18:05:26.675Z,98197.50
2022-11-02T18:07:53.703Z,98198.38
2022-11-02T18:10:21.361Z,98190.69
2022-11-02T18:12:47.984Z,98193.13
2022-11-02T18:15:16.358Z,98189.81
2022-11-02T18:17:43.239Z,98183.00
2022-11-02T18:20:10.340Z,98188.13
2022-11-02T18:22:36.959Z,98169.09
2022-11-02T18:25:04.542Z,98170.16
2022-11-02T18:27:31.051Z,98176.16
2022-11-02T18:29:57.866Z,98177.00
2022-11-02T18:32:24.505Z,98173.59
2022-11-02T18:34:50.982Z,98165.91
2022-11-02T18:37:17.523Z,98165.91
2022-11-02T18:39:44.011Z,98167.59
2022-11-02T18:42:10.550Z,98163.34
2022-11-02T18:44:37.032Z,98166.75
2022-11-02T18:47:04.546Z,98164.16
2022-11-02T18:49:31.050Z,98160.78
2022-11-02T18:51:57.641Z,98149.66
2022-11-02T18:54:24.739Z,98144.53
2022-11-02T18:56:52.811Z,98149.72
2022-11-02T18:59:19.319Z,98149.72
2022-11-02T19:01:45.880Z,98150.56
2022-11-02T19:04:17.184Z,98144.53
2022-11-02T19:07:02.627Z,98137.78
2022-11-02T19:09:31.611Z,98123.94
2022-11-02T19:12:01.230Z,98132.69
2022-11-02T19:14:28.870Z,98129.19
2022-11-02T19:16:55.442Z,98132.63
2022-11-02T19:19:21.967Z,98121.50
2022-11-02T19:21:48.747Z,98117.94
2022-11-02T19:24:15.311Z,98116.25
2022-11-02T19:26:41.820Z,98126.63
2022-11-02T19:29:08.350Z,98120.66
2022-11-02T19:31:35.337Z,98120.63
2022-11-02T19:34:02.156Z,98105.03
2022-11-02T19:36:28.677Z,98118.06
2022-11-02T19:38:55.225Z,98116.38
2022-11-02T19:41:22.259Z,98111.25
2022-11-02T19:43:48.815Z,98115.50
2022-11-02T19:46:16.915Z,98123.19
2022-11-02T19:48:43.447Z,98119.81
2022-11-02T19:51:19.293Z,98113.88
2022-11-02T19:53:48.973Z,98117.31
2022-11-02T19:56:16.062Z,98119.88
2022-11-02T19:58:44.079Z,98111.31
2022-11-02T20:01:14.097Z,98112.19
2022-11-02T20:03:40.743Z,98107.06
2022-11-02T20:06:10.418Z,98101.00
2022-11-02T20:08:37.007Z,98102.75
2022-11-02T20:11:05.102Z,98105.31
2022-11-02T20:13:35.259Z,98109.56
2022-11-02T20:16:02.577Z,98112.13
2022-11-02T20:18:29.146Z,98107.00
2022-11-02T20:21:05.286Z,98107.88
2022-11-02T20:23:31.862Z,98109.56
2022-11-02T20:26:09.159Z,98102.75
2022-11-02T20:28:39.472Z,98087.16
2022-11-02T20:31:09.507Z,98098.44
2022-11-02T20:33:36.081Z,98101.00
2022-11-02T20:36:02.716Z,98095.88
2022-11-02T20:38:29.378Z,98095.06
2022-11-02T20:41:12.458Z,98098.44
2022-11-02T20:43:40.666Z,98101.00
2022-11-02T20:46:36.058Z,98091.44
2022-11-02T20:49:08.482Z,98100.13
2022-11-02T20:51:46.470Z,98109.56
2022-11-02T20:54:13.904Z,98107.00
2022-11-02T20:56:40.394Z,98112.13
2022-11-02T20:59:06.874Z,98100.91
2022-11-02T21:01:34.897Z,98106.13
2022-11-02T21:04:01.778Z,98098.44
2022-11-02T21:06:28.314Z,98111.16
2022-11-02T21:08:54.786Z,98094.16
2022-11-02T21:11:39.827Z,98096.72
2022-11-02T21:14:06.316Z,98096.72
2022-11-02T21:16:33.786Z,98094.16
2022-11-02T21:19:00.262Z,98090.72
2022-11-02T21:21:26.772Z,98089.03
2022-11-02T21:23:53.305Z,98089.84
2022-11-02T21:26:19.816Z,98093.28
2022-11-02T21:28:46.382Z,98094.94
2022-11-02T21:31:20.370Z,98088.09
2022-11-02T21:33:47.977Z,98093.28
2022-11-02T21:36:14.805Z,98094.00
2022-11-02T21:38:41.471Z,98097.50
2022-11-02T21:41:08.846Z,98087.22
2022-11-02T21:43:36.385Z,98090.59
2022-11-02T21:46:03.541Z,98089.84
2022-11-02T21:48:31.802Z,98088.16
2022-11-02T21:51:18.527Z,98072.56
2022-11-02T21:53:45.658Z,98073.41
2022-11-02T21:56:13.557Z,98078.75
2022-11-02T21:58:44.718Z,98067.63
2022-11-02T22:01:34.650Z,98062.50
2022-11-02T22:04:01.399Z,98065.94
2022-11-02T22:06:31.225Z,98059.88
2022-11-02T22:08:58.676Z,98054.72
2022-11-02T22:11:28.307Z,98045.19
2022-11-02T22:13:56.026Z,98041.78
2022-11-02T22:16:27.823Z,98059.06
2022-11-02T22:19:05.226Z,98059.88
2022-11-02T22:21:33.902Z,98055.53
2022-11-02T22:24:00.444Z,98065.00
2022-11-02T22:26:28.453Z,98065.78
2022-11-02T22:28:57.094Z,98071.81
2022-11-02T22:31:25.518Z,98065.00
2022-11-02T22:33:56.210Z,98060.75
2022-11-02T22:36:24.443Z,98052.09
2022-11-02T22:38:54.156Z,98047.75
2022-11-02T22:41:27.830Z,98044.50
2022-11-02T22:43:56.480Z,98047.84
2022-11-02T22:46:23.583Z,98043.63
2022-11-02T22:48:50.755Z,98047.91
2022-11-02T22:51:19.055Z,98047.97
2022-11-02T22:53:45.520Z,98045.41
2022-11-02T22:56:13.016Z,98039.41
2022-11-02T22:58:40.741Z,98049.59
2022-11-02T23:01:08.592Z,98043.63
2022-11-02T23:03:35.317Z,98037.66
2022-11-02T23:06:02.142Z,98035.94
2022-11-02T23:08:28.757Z,98027.25
2022-11-02T23:11:14.595Z,98029.97
2022-11-02T23:13:41.387Z,98030.84
2022-11-02T23:16:23.114Z,98023.09
2022-11-02T23:19:25.400Z,98017.97
2022-11-02T23:22:18.958Z,98018.81
2022-11-02T23:25:10.903Z,98016.25
2022-11-02T23:27:59.975Z,98024.88
2022-11-02T23:30:49.902Z,98022.31
2022-11-02T23:33:16.554Z,98018.84
2022-11-02T23:36:01.694Z,98013.75
2022-11-02T23:38:48.322Z,98027.41
2022-11-02T23:41:14.975Z,98017.19
2022-11-02T23:43:41.452Z,98006.06
2022-11-02T23:46:07.946Z,98003.50
2022-11-02T23:48:34.470Z,98004.38
2022-11-02T23:51:19.411Z,98005.19
2022-11-02T23:54:04.295Z,98006.94
2022-11-02T23:56:45.828Z,97979.31
2022-11-02T23:59:12.410Z,98010.28
